Time;durP1;ratioP1;P1;durP2;ratioP2;P2;SDS_P1;SDS_P2;PMS_P1;PMS_P2;Temp;Humidity;BMP_temperature;BMP_pressure;BME280_temperature;BME280_humidity;BME280_pressure;Samples;Min_cycle;Max_cycle;Signal;HPM_P1;HPM_P2
2022/09/26 00:01:42;;;;;;;9.80;8.40;;;;;;;9.20;93.23;97048.67;110148;1247;71361;-69
2022/09/26 00:04:19;;;;;;;11.90;10.40;;;;;;;9.22;93.72;97037.77;110268;1245;69561;-69
2022/09/26 00:06:54;;;;;;;10.80;9.10;;;;;;;9.23;93.85;97036.27;110333;1245;69340;-69
2022/09/26 00:09:25;;;;;;;10.40;8.30;;;;;;;9.25;93.42;97035.30;110365;1244;59667;-69
2022/09/26 00:11:54;;;;;;;9.50;8.00;;;;;;;9.25;95.56;97031.96;110188;1245;59705;-69
2022/09/26 00:14:28;;;;;;;10.00;7.40;;;;;;;9.25;94.74;97026.11;110338;1244;71356;-69
2022/09/26 00:16:58;;;;;;;7.90;6.80;;;;;;;9.24;94.46;97021.26;110152;1245;68614;-69
2022/09/26 00:19:29;;;;;;;10.70;8.90;;;;;;;9.25;94.49;97016.50;110108;1247;69334;-69
2022/09/26 00:21:59;;;;;;;9.30;7.50;;;;;;;9.27;93.42;97014.09;110155;1245;59756;-68
2022/09/26 00:24:28;;;;;;;8.20;7.40;;;;;;;9.29;93.54;97012.73;110323;1245;59681;-68
2022/09/26 00:26:57;;;;;;;6.80;6.10;;;;;;;9.29;92.77;97008.20;110112;1246;71543;-70
2022/09/26 00:29:27;;;;;;;8.30;7.10;;;;;;;9.28;91.59;97004.96;110117;1247;69509;-71
2022/09/26 00:31:57;;;;;;;9.10;7.60;;;;;;;9.26;91.96;97001.84;110371;1245;68628;-71
2022/09/26 00:34:26;;;;;;;9.90;8.00;;;;;;;9.23;95.03;96998.88;110390;1245;59754;-70
2022/09/26 00:36:55;;;;;;;8.80;7.30;;;;;;;9.21;95.90;96995.24;110172;1247;59669;-69
2022/09/26 00:39:23;;;;;;;7.60;6.60;;;;;;;9.19;95.22;96999.52;110324;1245;70871;-71
2022/09/26 00:41:53;;;;;;;8.20;6.70;;;;;;;9.17;95.43;96995.98;110596;1247;69552;-70
2022/09/26 00:44:48;;;;;;;7.10;5.60;;;;;;;9.17;95.60;96997.24;110802;1247;68597;-69
2022/09/26 00:47:24;;;;;;;6.50;5.80;;;;;;;9.16;95.27;96998.50;110159;1247;59699;-71
2022/09/26 00:50:12;;;;;;;7.30;6.10;;;;;;;9.16;95.30;96995.54;110123;1246;59756;-70
2022/09/26 00:52:47;;;;;;;5.80;4.60;;;;;;;9.16;94.57;96993.48;110154;1245;70927;-71
2022/09/26 00:55:20;;;;;;;8.00;6.90;;;;;;;9.17;94.11;96996.20;110224;1245;67906;-69
2022/09/26 00:57:56;;;;;;;8.30;6.20;;;;;;;9.15;95.02;97000.52;110255;1245;68582;-68
2022/09/26 01:00:25;;;;;;;10.00;7.20;;;;;;;9.14;95.40;97001.09;110386;1244;59664;-68
2022/09/26 01:02:53;;;;;;;8.00;6.30;;;;;;;9.14;96.22;96997.96;110201;1245;59677;-69
2022/09/26 01:05:24;;;;;;;7.10;5.70;;;;;;;9.17;95.38;96993.45;110273;1245;71742;-69
2022/09/26 01:07:55;;;;;;;6.60;4.90;;;;;;;9.19;95.05;96998.51;110402;1245;68613;-69
2022/09/26 01:10:29;;;;;;;6.70;5.50;;;;;;;9.21;92.75;96996.62;110438;1245;70195;-68
2022/09/26 01:13:00;;;;;;;6.70;5.10;;;;;;;9.23;91.26;96991.40;110387;1245;59732;-68
2022/09/26 01:15:28;;;;;;;6.80;5.20;;;;;;;9.23;90.51;96981.30;110270;1245;59645;-69
2022/09/26 01:17:59;;;;;;;9.40;7.20;;;;;;;9.23;90.51;96984.29;110476;1245;71476;-71
2022/09/26 01:20:44;;;;;;;8.30;6.30;;;;;;;9.22;93.87;96985.21;110260;1245;68993;-69
2022/09/26 01:23:41;;;;;;;8.00;6.80;;;;;;;9.22;94.22;96988.40;110464;1245;69378;-69
2022/09/26 01:26:25;;;;;;;7.80;6.50;;;;;;;9.23;95.56;96985.72;110248;1245;59784;-69
2022/09/26 01:29:25;;;;;;;6.60;5.10;;;;;;;9.24;94.75;96982.46;110146;1246;59692;-68
2022/09/26 01:32:56;;;;;;;7.00;6.10;;;;;;;9.28;91.60;96983.23;110109;1246;70740;-69
2022/09/26 01:35:34;;;;;;;8.80;7.70;;;;;;;9.28;92.20;96978.85;110161;1245;69423;-68
2022/09/26 01:38:23;;;;;;;7.30;5.10;;;;;;;9.28;94.33;96976.59;110205;1245;69390;-71
2022/09/26 01:41:01;;;;;;;8.40;7.50;;;;;;;9.28;92.63;96976.30;110141;1245;59739;-68
2022/09/26 01:43:53;;;;;;;8.00;6.90;;;;;;;9.29;96.06;96980.91;110064;1247;59702;-67
2022/09/26 01:46:54;;;;;;;7.70;6.90;;;;;;;9.31;96.23;96975.55;110189;1245;70777;-71
2022/09/26 01:49:29;;;;;;;8.30;6.80;;;;;;;9.32;96.64;96974.92;110392;1246;71095;-71
2022/09/26 01:52:08;;;;;;;8.60;7.00;;;;;;;9.33;97.24;96971.73;110515;1245;69396;-68
2022/09/26 01:54:49;;;;;;;;;;;;;;;9.35;96.41;96968.48;110241;1245;59714;-69
2022/09/26 01:57:27;;;;;;;10.10;8.60;;;;;;;9.38;94.78;96966.14;110208;1245;59679;-68
2022/09/26 02:00:04;;;;;;;9.60;8.00;;;;;;;9.41;96.27;96962.08;110170;1248;70468;-69
2022/09/26 02:02:45;;;;;;;6.70;6.00;;;;;;;9.43;95.20;96960.51;110077;1246;67511;-69
2022/09/26 02:05:28;;;;;;;8.00;6.80;;;;;;;9.47;95.53;96957.45;110284;1245;68567;-69
2022/09/26 02:08:09;;;;;;;8.40;6.90;;;;;;;9.50;97.01;96959.47;110171;1244;59728;-69
2022/09/26 02:10:59;;;;;;;7.80;7.00;;;;;;;9.53;97.19;96958.89;110092;1245;59736;-69
2022/09/26 02:13:34;;;;;;;7.40;6.60;;;;;;;9.57;97.66;96963.45;110280;1245;70772;-69
2022/09/26 02:16:10;;;;;;;8.10;7.30;;;;;;;9.60;97.45;96968.14;110220;1244;69245;-71
2022/09/26 02:18:47;;;;;;;9.00;6.90;;;;;;;9.63;97.26;96969.77;110150;1247;69397;-69
2022/09/26 02:21:21;;;;;;;8.00;6.70;;;;;;;9.66;96.51;96965.41;110088;1247;59767;-71
2022/09/26 02:23:53;;;;;;;8.60;6.60;;;;;;;9.69;96.68;96965.65;110208;1247;59690;-71
2022/09/26 02:26:23;;;;;;;7.50;6.70;;;;;;;9.73;96.42;96961.90;110194;1246;70825;-70
2022/09/26 02:28:53;;;;;;;8.70;7.10;;;;;;;9.79;96.66;96959.58;110236;1247;68907;-70
2022/09/26 02:31:30;;;;;;;7.70;6.50;;;;;;;9.83;96.25;96957.83;110149;1245;69805;-71
2022/09/26 02:33:59;;;;;;;8.40;6.70;;;;;;;9.87;95.88;96958.36;110445;1244;59712;-70
2022/09/26 02:36:32;;;;;;;8.40;7.30;;;;;;;9.91;96.17;96959.27;110315;1245;59701;-71
2022/09/26 02:39:03;;;;;;;9.70;7.50;;;;;;;9.94;96.08;96954.52;110074;1247;70824;-70
2022/09/26 02:42:05;;;;;;;7.70;6.30;;;;;;;9.97;95.87;96953.31;110094;1246;68784;-69
2022/09/26 02:44:43;;;;;;;8.40;6.70;;;;;;;9.97;94.84;96950.98;110165;1246;68847;-70
2022/09/26 02:47:16;;;;;;;7.30;6.00;;;;;;;9.97;93.65;96942.33;110295;1245;59807;-71
2022/09/26 02:50:23;;;;;;;5.40;4.50;;;;;;;9.96;92.60;96940.31;110241;1246;59693;-71
2022/09/26 02:53:10;;;;;;;6.60;5.30;;;;;;;9.94;91.58;96934.52;110253;1247;71607;-71
2022/09/26 02:56:08;;;;;;;10.50;6.90;;;;;;;9.92;93.95;96926.98;110397;1245;68596;-71
2022/09/26 02:59:05;;;;;;;8.30;6.10;;;;;;;9.92;95.99;96919.87;110441;1245;69466;-71
2022/09/26 03:01:47;;;;;;;7.20;6.00;;;;;;;9.92;96.16;96913.75;110508;1245;59742;-70
2022/09/26 03:04:28;;;;;;;8.20;6.20;;;;;;;9.94;96.68;96915.22;110515;1245;59702;-69
2022/09/26 03:07:03;;;;;;;7.60;6.70;;;;;;;9.97;96.44;96914.31;110239;1247;71512;-68
2022/09/26 03:09:33;;;;;;;7.10;6.10;;;;;;;10.00;95.93;96916.13;110069;1246;69276;-69
2022/09/26 03:12:05;;;;;;;7.60;5.80;;;;;;;10.04;94.95;96919.08;110083;1247;69305;-69
2022/09/26 03:14:35;;;;;;;7.60;5.70;;;;;;;10.08;94.16;96916.90;110206;1247;59752;-69
2022/09/26 03:17:04;;;;;;;6.90;6.20;;;;;;;10.10;93.67;96915.14;110132;1247;59756;-69
2022/09/26 03:19:59;;;;;;;4.30;3.90;;;;;;;10.12;92.93;96909.61;110073;1247;71428;-71
2022/09/26 03:22:27;;;;;;;5.90;5.20;;;;;;;10.13;93.23;96909.54;110096;1247;69033;-70
2022/09/26 03:24:58;;;;;;;7.70;6.00;;;;;;;10.12;94.03;96903.67;110114;1247;69340;-70
2022/09/26 03:27:27;;;;;;;7.80;6.30;;;;;;;10.10;94.98;96901.41;110088;1247;59716;-68
2022/09/26 03:29:58;;;;;;;5.80;5.10;;;;;;;10.09;95.15;96898.74;110175;1245;59687;-66
2022/09/26 03:32:28;;;;;;;8.10;6.50;;;;;;;10.07;96.15;96906.48;110435;1245;70813;-70
2022/09/26 03:34:57;;;;;;;7.80;7.00;;;;;;;10.05;95.91;96908.92;110231;1245;68602;-69
2022/09/26 03:37:25;;;;;;;9.80;7.20;;;;;;;10.05;96.17;96905.13;110243;1245;69323;-69
2022/09/26 03:39:54;;;;;;;9.40;7.80;;;;;;;10.06;95.45;96905.77;110194;1245;59747;-71
2022/09/26 03:42:34;;;;;;;8.20;7.40;;;;;;;10.08;94.85;96902.80;110086;1247;59624;-69
2022/09/26 03:45:07;;;;;;;8.30;7.50;;;;;;;10.10;94.46;96890.61;110535;1245;71888;-72
2022/09/26 03:47:58;;;;;;;7.50;6.70;;;;;;;10.13;93.84;96894.88;110229;1245;69299;-69
2022/09/26 03:50:28;;;;;;;7.10;6.20;;;;;;;10.18;93.46;96899.41;110279;1245;69449;-71
2022/09/26 03:53:01;;;;;;;7.10;6.30;;;;;;;10.23;93.84;96893.83;110316;1244;59655;-67
2022/09/26 03:55:29;;;;;;;10.10;7.40;;;;;;;10.28;94.05;96886.14;110394;1244;59676;-69
2022/09/26 03:58:00;;;;;;;10.20;6.90;;;;;;;10.32;93.90;96878.47;110277;1245;71640;-71
2022/09/26 04:00:33;;;;;;;9.10;8.10;;;;;;;10.35;93.92;96873.30;110344;1245;68610;-70
2022/09/26 04:03:04;;;;;;;9.10;7.50;;;;;;;10.37;94.57;96874.75;110546;1245;69356;-70
2022/09/26 04:05:37;;;;;;;10.00;7.30;;;;;;;10.39;94.67;96875.30;110529;1244;59650;-69
2022/09/26 04:08:06;;;;;;;8.30;6.60;;;;;;;10.41;94.39;96881.06;110527;1245;59737;-69
2022/09/26 04:10:34;;;;;;;8.40;7.20;;;;;;;10.43;94.47;96876.67;110511;1245;69690;-69
2022/09/26 04:13:02;;;;;;;8.60;6.20;;;;;;;10.46;94.59;96871.42;110322;1245;68533;-68
2022/09/26 04:15:30;;;;;;;7.70;7.00;;;;;;;10.48;93.29;96870.54;110328;1245;70605;-69
2022/09/26 04:18:05;;;;;;;8.90;6.80;;;;;;;10.51;92.62;96870.34;110212;1247;59742;-68
2022/09/26 04:20:33;;;;;;;8.50;7.00;;;;;;;10.53;92.45;96868.06;110461;1244;59713;-68
2022/09/26 04:23:02;;;;;;;7.20;6.30;;;;;;;10.55;92.41;96866.98;110399;1247;70642;-68
2022/09/26 04:25:30;;;;;;;10.90;7.20;;;;;;;10.58;91.98;96866.98;110340;1245;69453;-68
2022/09/26 04:27:58;;;;;;;11.10;8.50;;;;;;;10.59;93.91;96870.16;110202;1248;68459;-69
2022/09/26 04:30:28;;;;;;;8.90;7.60;;;;;;;10.59;93.47;96870.19;110464;1244;59750;-69
2022/09/26 04:32:59;;;;;;;8.80;6.40;;;;;;;10.58;93.10;96878.08;110415;1245;59724;-69
2022/09/26 04:35:34;;;;;;;8.30;6.50;;;;;;;10.57;94.00;96884.41;110488;1245;71881;-69
2022/09/26 04:38:03;;;;;;;10.90;8.00;;;;;;;10.57;94.35;96887.63;110403;1245;69034;-69
2022/09/26 04:40:31;;;;;;;;;;;;;;;10.56;94.67;96884.52;110291;1244;69795;-68
2022/09/26 04:43:04;;;;;;;7.10;6.00;;;;;;;10.57;94.05;96877.67;110446;1245;59694;-69
2022/09/26 04:45:33;;;;;;;11.70;9.00;;;;;;;10.57;93.73;96880.45;110494;1245;58873;-69
2022/09/26 04:48:01;;;;;;;10.60;8.50;;;;;;;10.55;92.44;96878.35;110356;1244;70785;-69
2022/09/26 04:50:49;;;;;;;10.20;9.00;;;;;;;10.47;92.83;96886.83;110446;1244;68482;-70
2022/09/26 04:53:18;;;;;;;13.30;10.90;;;;;;;10.40;92.13;96882.48;110394;1247;69332;-68
2022/09/26 04:55:57;;;;;;;;;;;;;;;10.32;92.23;96878.30;110264;1244;59757;-68
2022/09/26 04:58:25;;;;;;;11.30;7.50;;;;;;;10.24;94.89;96870.23;110322;1245;60114;-67
2022/09/26 05:00:53;;;;;;;11.10;8.70;;;;;;;10.23;96.03;96873.05;110257;1245;71561;-70
2022/09/26 05:03:32;;;;;;;10.00;7.50;;;;;;;10.25;96.65;96871.21;110240;1245;69642;-69
2022/09/26 05:06:00;;;;;;;10.50;8.70;;;;;;;10.28;96.73;96865.03;110542;1244;68557;-71
2022/09/26 05:08:29;;;;;;;9.30;8.30;;;;;;;10.32;97.33;96855.84;110713;1245;59720;-70
2022/09/26 05:10:57;;;;;;;10.40;8.80;;;;;;;10.37;96.53;96841.96;110521;1244;59738;-69
2022/09/26 05:13:25;;;;;;;9.30;7.60;;;;;;;10.43;96.25;96841.88;110438;1244;70752;-70
2022/09/26 05:15:54;;;;;;;9.20;7.00;;;;;;;10.50;94.78;96849.17;110329;1245;69235;-70
2022/09/26 05:18:22;;;;;;;12.50;9.10;;;;;;;10.54;93.18;96849.66;110286;1245;69387;-71
2022/09/26 05:20:51;;;;;;;11.90;9.20;;;;;;;10.57;92.81;96848.91;110164;1247;59745;-71
2022/09/26 05:26:37;;;;;;;13.20;9.80;;;;;;;10.66;95.63;96844.38;110329;1245;70684;-71
2022/09/26 05:29:05;;;;;;;11.90;9.00;;;;;;;10.71;95.43;96839.36;110412;1246;69026;-69
2022/09/26 05:32:00;;;;;;;10.90;7.90;;;;;;;10.77;94.94;96831.23;110592;1247;69377;-70
2022/09/26 05:34:29;;;;;;;9.50;7.40;;;;;;;10.83;94.46;96833.02;110842;1245;59748;-71
2022/09/26 05:36:58;;;;;;;9.40;7.80;;;;;;;10.89;94.70;96841.59;109873;1246;390581;-71
2022/09/26 05:42:14;;;;;;;8.00;7.20;;;;;;;10.99;93.21;96849.48;110200;1247;69393;-70
2022/09/26 05:44:42;;;;;;;8.00;7.00;;;;;;;11.04;92.56;96850.27;110385;1244;69376;-72
2022/09/26 05:47:11;;;;;;;6.80;6.00;;;;;;;11.08;91.26;96848.50;110288;1245;59762;-71
2022/09/26 05:49:40;;;;;;;6.50;5.50;;;;;;;11.15;90.46;96839.38;110354;1245;59679;-70
2022/09/26 05:52:09;;;;;;;8.60;6.60;;;;;;;11.21;89.89;96833.63;110320;1247;70764;-70
2022/09/26 05:54:37;;;;;;;6.50;5.80;;;;;;;11.28;89.82;96823.30;110197;1245;68835;-69
2022/09/26 05:57:16;;;;;;;7.80;6.40;;;;;;;11.34;89.62;96813.33;110157;1245;68539;-69
2022/09/26 05:59:50;;;;;;;6.60;6.00;;;;;;;11.40;89.03;96807.66;110334;1245;59701;-70
2022/09/26 06:02:23;;;;;;;7.60;5.60;;;;;;;11.46;88.62;96803.23;110239;1245;59680;-69
2022/09/26 06:05:18;;;;;;;8.00;6.00;;;;;;;11.55;87.52;96797.05;110094;1245;72118;-70
2022/09/26 06:08:04;;;;;;;6.60;5.70;;;;;;;11.63;86.97;96799.68;110362;1245;68785;-69
2022/09/26 06:10:42;;;;;;;7.80;6.50;;;;;;;11.70;85.98;96807.06;110196;1245;68495;-70
2022/09/26 06:13:14;;;;;;;6.90;5.00;;;;;;;11.78;85.62;96811.85;110134;1245;59751;-71
2022/09/26 06:15:48;;;;;;;6.30;5.30;;;;;;;11.83;84.46;96810.17;111040;1244;59678;-71
2022/09/26 06:18:16;;;;;;;6.20;5.60;;;;;;;11.90;84.72;96808.70;110418;1244;70745;-71
2022/09/26 06:20:44;;;;;;;7.90;5.90;;;;;;;11.96;84.44;96807.81;110344;1245;69976;-71
2022/09/26 06:23:13;;;;;;;6.10;5.50;;;;;;;12.00;84.39;96803.63;110252;1247;68735;-71
2022/09/26 06:25:43;;;;;;;6.80;5.30;;;;;;;12.04;83.85;96802.75;110174;1245;59748;-71
2022/09/26 06:28:12;;;;;;;6.30;5.70;;;;;;;12.09;83.58;96798.33;110087;1248;59716;-69
2022/09/26 06:30:39;;;;;;;8.10;6.20;;;;;;;12.15;82.80;96808.08;110210;1245;70801;-69
2022/09/26 06:33:21;;;;;;;7.80;5.80;;;;;;;12.23;83.21;96816.10;110132;1245;69400;-71
2022/09/26 06:36:14;;;;;;;8.00;6.40;;;;;;;12.32;82.51;96817.58;110403;1245;69405;-69
2022/09/26 06:38:42;;;;;;;6.80;5.70;;;;;;;12.39;81.33;96812.04;110271;1247;59814;-70
2022/09/26 06:41:15;;;;;;;6.20;5.60;;;;;;;12.51;82.18;96804.70;110352;1245;59663;-71
2022/09/26 06:43:44;;;;;;;5.80;5.10;;;;;;;12.65;81.82;96799.59;110339;1245;69651;-72
2022/09/26 06:46:30;;;;;;;7.20;6.00;;;;;;;12.81;81.20;96796.02;110168;1247;69335;-69
2022/09/26 06:49:11;;;;;;;5.20;4.60;;;;;;;13.00;78.74;96795.02;110383;1245;68588;-71
2022/09/26 06:51:50;;;;;;;6.40;5.10;;;;;;;13.21;79.52;96791.44;110520;1245;59756;-72
2022/09/26 06:54:18;;;;;;;6.60;5.40;;;;;;;13.39;76.43;96796.44;110110;1245;59753;-70
2022/09/26 06:56:45;;;;;;;7.70;5.60;;;;;;;13.60;78.32;96797.81;110032;1247;71564;-69
2022/09/26 06:59:15;;;;;;;7.90;5.40;;;;;;;13.78;74.82;96797.86;110083;1248;69416;-72
2022/09/26 07:01:49;;;;;;;6.00;4.70;;;;;;;13.99;75.83;96798.27;110184;1247;69374;-72
2022/09/26 07:04:37;;;;;;;5.60;4.90;;;;;;;14.22;73.59;96798.15;110305;1244;59744;-70
2022/09/26 07:07:13;;;;;;;6.50;5.00;;;;;;;14.45;72.74;96792.95;110072;1248;59993;-71
2022/09/26 07:09:41;;;;;;;7.00;6.30;;;;;;;14.63;72.02;96783.94;110197;1247;71831;-71
2022/09/26 07:12:36;;;;;;;5.50;5.00;;;;;;;14.84;72.65;96778.39;110366;1245;68481;-70
2022/09/26 07:15:05;;;;;;;7.80;5.50;;;;;;;15.04;71.37;96780.58;110350;1245;68499;-72
2022/09/26 07:17:33;;;;;;;6.40;4.60;;;;;;;15.27;68.89;96770.55;110218;1245;59697;-72
2022/09/26 07:20:04;;;;;;;5.90;4.80;;;;;;;15.59;68.72;96776.02;110397;1246;59750;-73
2022/09/26 07:22:51;;;;;;;5.10;4.60;;;;;;;15.87;71.33;96779.08;110773;1244;70749;-73
2022/09/26 07:25:19;;;;;;;5.30;4.80;;;;;;;16.06;69.30;96777.33;110252;1245;70262;-73
2022/09/26 07:27:49;;;;;;;5.60;4.10;;;;;;;16.19;67.48;96776.23;110312;1245;69398;-73
2022/09/26 07:30:18;;;;;;;6.10;5.00;;;;;;;16.34;68.19;96771.88;110287;1245;59696;-71
2022/09/26 07:32:59;;;;;;;6.70;4.60;;;;;;;16.43;66.22;96767.70;110125;1247;59607;-73
2022/09/26 07:35:36;;;;;;;5.90;4.40;;;;;;;16.74;66.41;96764.61;110075;1247;70960;-72
2022/09/26 07:38:04;;;;;;;5.10;4.60;;;;;;;17.09;63.44;96767.67;110296;1245;70205;-72
2022/09/26 07:40:32;;;;;;;5.30;3.50;;;;;;;17.32;61.42;96772.58;110180;1245;68873;-72
2022/09/26 07:43:01;;;;;;;5.20;4.10;;;;;;;17.50;63.37;96777.80;110341;1245;59668;-74
2022/09/26 07:51:48;;;;;;;4.20;3.50;;;;;;;17.38;60.90;96776.45;110165;1246;69465;-73
2022/09/26 07:54:19;;;;;;;6.00;3.70;;;;;;;17.32;60.69;96771.15;110118;1246;69751;-73
2022/09/26 07:57:07;;;;;;;5.80;4.00;;;;;;;17.16;59.11;96762.54;110150;1247;59745;-73
2022/09/26 07:59:53;;;;;;;4.40;3.80;;;;;;;17.16;60.78;96757.91;110119;1247;59732;-72
2022/09/26 08:02:45;;;;;;;3.20;2.70;;;;;;;17.32;61.59;96751.41;110172;1246;70657;-74
2022/09/26 08:05:18;;;;;;;4.00;3.40;;;;;;;17.51;59.90;96745.30;110294;1247;69461;-73
2022/09/26 08:07:48;;;;;;;4.20;3.10;;;;;;;17.75;59.45;96742.58;110112;1247;68651;-73
2022/09/26 08:10:34;;;;;;;4.70;3.80;;;;;;;17.99;59.12;96739.56;110250;1247;59682;-75
2022/09/26 08:13:20;;;;;;;3.90;3.50;;;;;;;18.29;59.55;96738.70;110156;1246;59779;-74
2022/09/26 08:16:23;;;;;;;4.30;3.30;;;;;;;18.63;59.18;96734.26;110178;1247;71569;-73
2022/09/26 08:18:54;;;;;;;5.00;4.50;;;;;;;18.90;57.41;96727.94;110046;1247;69937;-72
2022/09/26 08:21:23;;;;;;;;;;;;;;;19.07;54.90;96729.96;110183;1247;68598;-73
2022/09/26 08:23:55;;;;;;;4.80;3.80;;;;;;;19.15;53.21;96724.48;110121;1248;59750;-75
2022/09/26 08:26:31;;;;;;;4.80;3.90;;;;;;;19.25;54.44;96725.70;110170;1247;59721;-74
2022/09/26 08:29:11;;;;;;;5.70;4.30;;;;;;;19.26;53.43;96726.84;110860;1247;70792;-74
2022/09/26 08:31:40;;;;;;;4.80;3.60;;;;;;;19.27;54.80;96731.39;110157;1247;68518;-75
2022/09/26 08:34:08;;;;;;;4.40;3.50;;;;;;;19.14;53.72;96733.96;110273;1247;68516;-73
2022/09/26 08:36:35;;;;;;;3.50;3.10;;;;;;;19.13;54.63;96727.16;110074;1248;59723;-73
2022/09/26 08:39:13;;;;;;;5.30;3.40;;;;;;;19.21;55.33;96722.20;110208;1247;59743;-74
2022/09/26 08:42:22;;;;;;;3.50;2.80;;;;;;;19.29;54.26;96722.98;110322;1245;71878;-74
2022/09/26 08:49:14;;;;;;;4.50;3.30;;;;;;;19.72;53.78;96705.52;109960;1247;68860;-75
2022/09/26 08:51:50;;;;;;;4.20;3.40;;;;;;;19.82;53.15;96717.81;110063;1247;59804;-74
2022/09/26 08:54:38;;;;;;;4.60;3.80;;;;;;;20.19;52.04;96711.35;110233;1245;59683;-73
2022/09/26 08:57:25;;;;;;;5.10;3.70;;;;;;;21.02;51.29;96700.48;110100;1247;72160;-74
2022/09/26 08:59:53;;;;;;;3.80;3.40;;;;;;;21.84;51.08;96703.14;110107;1247;69606;-74
2022/09/26 09:02:36;;;;;;;4.10;3.40;;;;;;;22.15;46.97;96692.90;110079;1247;69849;-75
2022/09/26 09:05:28;;;;;;;3.30;3.00;;;;;;;22.56;45.11;96681.44;110175;1247;59659;-75
2022/09/26 09:07:58;;;;;;;4.00;3.20;;;;;;;23.24;43.62;96684.76;110238;1248;59784;-75
2022/09/26 09:10:39;;;;;;;3.70;3.20;;;;;;;23.85;40.93;96692.11;110229;1247;71123;-75
2022/09/26 09:13:22;;;;;;;5.00;3.10;;;;;;;24.90;42.96;96686.66;110146;1247;67486;-75
2022/09/26 09:16:52;;;;;;;5.10;3.10;;;;;;;25.60;39.63;96684.99;110060;1248;69323;-74
2022/09/26 09:19:38;;;;;;;3.30;2.70;;;;;;;26.43;37.54;96675.87;110070;1246;59716;-74
2022/09/26 09:22:48;;;;;;;2.90;2.60;;;;;;;26.57;36.41;96671.73;110074;1248;59748;-75
2022/09/26 09:25:42;;;;;;;3.80;2.80;;;;;;;26.31;36.00;96666.94;110127;1248;70670;-76
2022/09/26 09:28:37;;;;;;;3.80;2.70;;;;;;;25.61;35.77;96666.52;110278;1248;69341;-76
2022/09/26 09:31:10;;;;;;;3.50;2.80;;;;;;;24.94;37.86;96665.30;110195;1247;68659;-77
2022/09/26 09:33:48;;;;;;;4.70;3.10;;;;;;;24.33;37.16;96662.65;110341;1247;59878;-77
2022/09/26 09:37:16;;;;;;;3.50;2.90;;;;;;;23.82;38.85;96664.72;110477;1248;59691;-77
2022/09/26 09:40:05;;;;;;;3.40;3.10;;;;;;;23.11;39.53;96658.91;109602;1253;71979;-76
2022/09/26 09:42:53;;;;;;;3.30;3.00;;;;;;;22.71;41.14;96665.16;109656;1253;68560;-76
2022/09/26 09:45:34;;;;;;;3.60;3.10;;;;;;;22.38;41.60;96670.83;110040;1248;70061;-77
2022/09/26 09:48:03;;;;;;;3.70;3.00;;;;;;;22.27;42.24;96667.45;110101;1248;59706;-76
2022/09/26 09:50:42;;;;;;;4.70;3.40;;;;;;;22.16;42.43;96670.21;110125;1247;59684;-76
2022/09/26 09:53:43;;;;;;;3.30;3.00;;;;;;;22.02;42.00;96670.37;110218;1248;71540;-75
2022/09/26 09:56:13;;;;;;;4.00;2.90;;;;;;;22.21;41.95;96668.45;110213;1248;69360;-76
2022/09/26 09:58:46;;;;;;;3.90;3.00;;;;;;;22.81;41.72;96662.34;110189;1248;68749;-75
2022/09/26 10:01:24;;;;;;;3.40;2.90;;;;;;;23.16;40.94;96657.59;110080;1248;59740;-75
2022/09/26 10:04:05;;;;;;;3.40;2.70;;;;;;;23.00;40.84;96667.79;110235;1248;59738;-75
2022/09/26 10:06:34;;;;;;;3.50;2.30;;;;;;;22.78;42.06;96672.09;110250;1247;71585;-76
2022/09/26 10:09:22;;;;;;;4.10;2.90;;;;;;;22.54;42.26;96662.75;110210;1248;69230;-76
2022/09/26 10:12:31;;;;;;;3.70;2.90;;;;;;;22.22;42.66;96670.14;110146;1247;68566;-76
2022/09/26 10:15:19;;;;;;;4.60;3.00;;;;;;;22.04;43.36;96669.47;110073;1248;59631;-77
2022/09/26 10:18:20;;;;;;;3.30;2.70;;;;;;;21.59;42.36;96661.96;109991;1248;59699;-76
2022/09/26 10:21:15;;;;;;;3.50;3.00;;;;;;;21.24;42.94;96654.63;110040;1248;70655;-76
2022/09/26 10:23:49;;;;;;;3.70;3.20;;;;;;;21.17;43.58;96658.95;110203;1247;69282;-77
2022/09/26 10:26:38;;;;;;;2.90;2.60;;;;;;;21.12;44.33;96655.09;110086;1248;69672;-77
2022/09/26 10:29:23;;;;;;;3.20;2.80;;;;;;;21.05;44.66;96657.79;110216;1247;59719;-76
2022/09/26 10:31:56;;;;;;;3.40;3.10;;;;;;;21.02;45.08;96660.67;110132;1247;59689;-76
2022/09/26 10:34:26;;;;;;;3.10;2.60;;;;;;;20.90;44.76;96655.85;110217;1246;71412;-77
2022/09/26 10:36:55;;;;;;;3.20;2.80;;;;;;;20.82;44.72;96647.60;110265;1248;68739;-77
2022/09/26 10:42:21;;;;;;;3.90;3.20;;;;;;;20.86;44.51;96643.36;110033;1246;59703;-75
2022/09/26 10:44:56;;;;;;;4.10;2.50;;;;;;;20.99;45.61;96652.15;110248;1247;60054;-75
2022/09/26 10:47:47;;;;;;;3.30;2.90;;;;;;;21.17;44.99;96657.34;110275;1247;70933;-77
2022/09/26 10:50:51;;;;;;;3.30;3.00;;;;;;;21.35;45.27;96652.39;110419;1247;68583;-75
2022/09/26 10:53:39;;;;;;;5.40;3.20;;;;;;;21.52;43.99;96650.86;110474;1248;68508;-74
2022/09/26 10:56:13;;;;;;;2.90;2.40;;;;;;;21.70;43.81;96648.98;110339;1248;59819;-75
2022/09/26 10:58:45;;;;;;;3.70;3.40;;;;;;;21.86;43.33;96650.42;110397;1248;59740;-75
2022/09/26 11:01:20;;;;;;;2.90;2.60;;;;;;;22.00;42.75;96645.46;110475;1247;70622;-75
2022/09/26 11:03:49;;;;;;;3.40;2.70;;;;;;;22.31;42.15;96633.29;110184;1248;68635;-77
2022/09/26 11:06:33;;;;;;;4.20;2.60;;;;;;;22.88;42.30;96618.91;110208;1245;68645;-77
2022/09/26 11:09:19;;;;;;;3.10;2.80;;;;;;;23.56;40.88;96612.09;110198;1245;59700;-76
2022/09/26 11:12:29;;;;;;;3.60;2.60;;;;;;;23.96;38.86;96601.48;110174;1247;59704;-76
2022/09/26 11:15:10;;;;;;;3.80;3.00;;;;;;;24.27;38.88;96590.55;110522;1245;70579;-76
2022/09/26 11:17:46;;;;;;;2.40;2.20;;;;;;;24.56;38.05;96589.05;110365;1245;69982;-77
2022/09/26 11:20:36;;;;;;;4.20;2.70;;;;;;;24.81;37.54;96585.80;110609;1245;69752;-76
2022/09/26 11:23:13;;;;;;;4.40;2.60;;;;;;;25.08;38.02;96591.74;110315;1246;60185;-75
2022/09/26 11:26:01;;;;;;;4.00;2.60;;;;;;;25.44;38.05;96602.20;110594;1247;59658;-76
2022/09/26 11:28:37;;;;;;;2.50;2.20;;;;;;;25.57;37.11;96598.54;110325;1247;71115;-78
2022/09/26 11:31:33;;;;;;;3.80;2.60;;;;;;;25.57;37.36;96603.73;110546;1245;69450;-76
2022/09/26 11:34:26;;;;;;;4.10;2.60;;;;;;;25.44;37.07;96602.67;110511;1245;69373;-79
2022/09/26 11:37:40;;;;;;;4.20;3.20;;;;;;;24.88;37.35;96603.45;110578;1247;60046;-76
2022/09/26 11:40:20;;;;;;;3.80;2.60;;;;;;;24.16;38.83;96615.89;110475;1245;59627;-77
2022/09/26 11:42:58;;;;;;;4.20;3.20;;;;;;;23.71;39.97;96619.35;110332;1247;70731;-78
2022/09/26 11:45:29;;;;;;;5.00;3.30;;;;;;;23.24;41.06;96617.58;110621;1245;69320;-76
2022/09/26 11:49:01;;;;;;;3.80;3.00;;;;;;;22.84;42.29;96604.86;109726;1251;69426;-76
2022/09/26 11:52:11;;;;;;;3.60;2.80;;;;;;;22.69;42.61;96592.88;109670;1256;59762;-74
2022/09/26 11:55:23;;;;;;;3.50;3.20;;;;;;;22.87;42.55;96591.33;109964;1251;59681;-78
2022/09/26 11:58:25;;;;;;;3.90;3.00;;;;;;;23.22;42.21;96594.11;110200;1245;71598;-77
2022/09/26 12:01:04;;;;;;;4.20;3.40;;;;;;;23.19;41.84;96590.11;110529;1245;67577;-76
2022/09/26 12:03:52;;;;;;;5.70;3.20;;;;;;;23.05;42.17;96591.92;110396;1245;68843;-75
2022/09/26 12:06:43;;;;;;;4.30;3.30;;;;;;;22.91;42.54;96582.98;110519;1245;59645;-75
2022/09/26 12:09:47;;;;;;;3.40;3.10;;;;;;;22.74;43.17;96584.23;110570;1245;60083;-76
2022/09/26 12:12:34;;;;;;;3.60;3.30;;;;;;;22.48;44.22;96585.77;110301;1246;70520;-76
2022/09/26 12:15:29;;;;;;;3.40;3.10;;;;;;;22.29;44.90;96578.79;110348;1245;70023;-77
2022/09/26 12:18:27;;;;;;;3.60;3.20;;;;;;;22.19;45.31;96569.85;110198;1244;69430;-75
2022/09/26 12:21:20;;;;;;;3.30;3.00;;;;;;;22.08;45.51;96567.78;110422;1245;59690;-75
2022/09/26 12:23:50;;;;;;;4.20;3.10;;;;;;;21.97;45.82;96563.67;110388;1247;59673;-75
2022/09/26 12:26:42;;;;;;;4.30;3.50;;;;;;;21.88;45.99;96566.53;110381;1245;71633;-74
2022/09/26 12:29:31;;;;;;;4.00;3.00;;;;;;;21.91;46.82;96566.29;110345;1245;69417;-75
2022/09/26 12:32:17;;;;;;;4.90;3.10;;;;;;;22.06;47.15;96562.75;110470;1245;68760;-76
2022/09/26 12:35:06;;;;;;;3.20;2.90;;;;;;;22.24;46.48;96562.27;110505;1245;60647;-77
2022/09/26 12:37:56;;;;;;;4.10;3.30;;;;;;;22.33;47.47;96562.29;110662;1246;59742;-77
2022/09/26 12:40:29;;;;;;;4.40;3.20;;;;;;;22.27;47.10;96563.02;110386;1248;71481;-76